createdAt,value
2017-02-02T00:00:06.766Z,925.43
2017-02-02T00:00:21.345Z,925.4
2017-02-02T00:00:35.951Z,925.41
2017-02-02T00:00:50.510Z,925.35
2017-02-02T00:01:05.058Z,925.43
2017-02-02T00:01:19.663Z,925.44
2017-02-02T00:01:34.248Z,925.44
2017-02-02T00:01:48.828Z,925.4
2017-02-02T00:02:03.405Z,925.44
2017-02-02T00:02:18.000Z,925.45
2017-02-02T00:02:32.610Z,925.47
2017-02-02T00:02:47.215Z,925.46
2017-02-02T00:03:01.783Z,925.48
2017-02-02T00:03:16.312Z,925.47
2017-02-02T00:03:30.881Z,925.47
2017-02-02T00:03:45.504Z,925.48
2017-02-02T00:04:00.064Z,925.48
2017-02-02T00:04:14.713Z,925.47
2017-02-02T00:04:29.322Z,925.46
2017-02-02T00:04:43.899Z,925.48
2017-02-02T00:04:58.655Z,925.44
2017-02-02T00:05:13.502Z,925.45
2017-02-02T00:05:28.082Z,925.46
2017-02-02T00:05:42.653Z,925.44
2017-02-02T00:05:57.229Z,925.43
2017-02-02T00:06:11.871Z,925.45
2017-02-02T00:06:26.479Z,925.43
2017-02-02T00:06:41.034Z,925.46
2017-02-02T00:06:55.572Z,925.42
2017-02-02T00:07:10.181Z,925.43
2017-02-02T00:07:24.720Z,925.41
2017-02-02T00:07:39.299Z,925.42
2017-02-02T00:07:53.864Z,925.38
2017-02-02T00:08:08.483Z,925.41
2017-02-02T00:08:23.048Z,925.38
2017-02-02T00:08:37.660Z,925.39
2017-02-02T00:08:52.300Z,925.4
2017-02-02T00:09:06.907Z,925.37
2017-02-02T00:09:21.505Z,925.37
2017-02-02T00:09:36.070Z,925.37
2017-02-02T00:09:50.674Z,925.35
2017-02-02T00:10:05.225Z,925.36
2017-02-02T00:10:19.771Z,925.34
2017-02-02T00:10:34.321Z,925.38
2017-02-02T00:10:48.969Z,925.34
2017-02-02T00:11:03.535Z,925.33
2017-02-02T00:11:18.136Z,925.35
2017-02-02T00:11:32.736Z,925.33
2017-02-02T00:11:47.335Z,925.35
2017-02-02T00:12:02.169Z,925.39
2017-02-02T00:12:16.794Z,925.35
2017-02-02T00:12:31.424Z,925.34
2017-02-02T00:12:46.007Z,925.37
2017-02-02T00:13:00.589Z,925.37
2017-02-02T00:13:15.161Z,925.38
2017-02-02T00:13:29.713Z,925.38
2017-02-02T00:13:44.575Z,925.38
2017-02-02T00:13:59.183Z,925.4
2017-02-02T00:14:13.828Z,925.37
2017-02-02T00:14:28.424Z,925.37
2017-02-02T00:14:42.974Z,925.41
2017-02-02T00:14:57.546Z,925.43
2017-02-02T00:15:12.115Z,925.41
2017-02-02T00:15:26.716Z,925.45
2017-02-02T00:15:41.328Z,925.47
2017-02-02T00:15:55.878Z,925.45
2017-02-02T00:16:10.500Z,925.48
2017-02-02T00:16:25.099Z,925.47
2017-02-02T00:16:39.673Z,925.46
2017-02-02T00:16:54.240Z,925.46
2017-02-02T00:17:08.851Z,925.49
2017-02-02T00:17:23.412Z,925.5
2017-02-02T00:17:38.012Z,925.5
2017-02-02T00:17:52.575Z,925.49
2017-02-02T00:18:07.187Z,925.49
2017-02-02T00:18:21.751Z,925.52
2017-02-02T00:18:36.282Z,925.52
2017-02-02T00:18:50.865Z,925.51
2017-02-02T00:19:05.461Z,925.51
2017-02-02T00:19:20.031Z,925.52
2017-02-02T00:19:34.651Z,925.53
2017-02-02T00:19:49.223Z,925.52
2017-02-02T00:20:03.832Z,925.53
2017-02-02T00:20:18.439Z,925.54
2017-02-02T00:20:33.161Z,925.5
2017-02-02T00:20:47.742Z,925.53
2017-02-02T00:21:02.337Z,925.54
2017-02-02T00:21:16.870Z,925.52
2017-02-02T00:21:31.482Z,925.54
2017-02-02T00:21:46.300Z,925.53
2017-02-02T00:22:00.901Z,925.54
2017-02-02T00:22:15.523Z,925.54
2017-02-02T00:22:30.103Z,925.52
2017-02-02T00:22:44.763Z,925.53
2017-02-02T00:22:59.380Z,925.5
2017-02-02T00:23:13.987Z,925.52
2017-02-02T00:23:28.530Z,925.53
2017-02-02T00:23:43.068Z,925.51
2017-02-02T00:23:57.624Z,925.51
2017-02-02T00:24:12.298Z,925.5
2017-02-02T00:24:26.919Z,925.49
2017-02-02T00:24:41.544Z,925.52
2017-02-02T00:24:56.166Z,925.5
2017-02-02T00:25:10.745Z,925.51
2017-02-02T00:25:25.379Z,925.48
2017-02-02T00:25:39.929Z,925.48
2017-02-02T00:25:54.483Z,925.49
2017-02-02T00:26:09.068Z,925.51
2017-02-02T00:26:23.688Z,925.49
2017-02-02T00:26:38.187Z,925.5
2017-02-02T00:26:52.762Z,925.47
2017-02-02T00:27:07.357Z,925.51
2017-02-02T00:27:21.893Z,925.5
2017-02-02T00:27:36.420Z,925.47
2017-02-02T00:27:51.024Z,925.5
2017-02-02T00:28:05.657Z,925.49
2017-02-02T00:28:20.206Z,925.48
2017-02-02T00:28:34.785Z,925.51
2017-02-02T00:28:49.423Z,925.45
2017-02-02T00:29:04.006Z,925.48
2017-02-02T00:29:18.576Z,925.48
2017-02-02T00:29:33.152Z,925.47
2017-02-02T00:29:47.739Z,925.46
2017-02-02T00:30:02.342Z,925.49
2017-02-02T00:30:16.906Z,925.48
2017-02-02T00:30:31.484Z,925.48
2017-02-02T00:30:46.097Z,925.44
2017-02-02T00:31:00.731Z,925.48
2017-02-02T00:31:15.396Z,925.44
2017-02-02T00:31:29.939Z,925.46
2017-02-02T00:31:44.536Z,925.47
2017-02-02T00:31:59.087Z,925.47
2017-02-02T00:32:13.637Z,925.44
2017-02-02T00:32:28.208Z,925.5
2017-02-02T00:32:42.843Z,925.46
2017-02-02T00:32:57.428Z,925.45
2017-02-02T00:33:12.045Z,925.42
2017-02-02T00:33:26.620Z,925.44
2017-02-02T00:33:41.402Z,925.45
2017-02-02T00:33:55.969Z,925.42
2017-02-02T00:34:10.538Z,925.47
2017-02-02T00:34:25.079Z,925.45
2017-02-02T00:34:39.672Z,925.46
2017-02-02T00:34:54.296Z,925.46
2017-02-02T00:35:08.863Z,925.49
2017-02-02T00:35:23.420Z,925.46
2017-02-02T00:35:38.198Z,925.49
2017-02-02T00:35:52.822Z,925.48
2017-02-02T00:36:07.436Z,925.43
2017-02-02T00:36:22.068Z,925.47
2017-02-02T00:36:36.732Z,925.49
2017-02-02T00:36:51.333Z,925.46
2017-02-02T00:37:05.951Z,925.49
2017-02-02T00:37:20.507Z,925.48
2017-02-02T00:37:35.091Z,925.45
2017-02-02T00:37:49.606Z,925.45
2017-02-02T00:38:04.220Z,925.46
2017-02-02T00:38:18.849Z,925.47
2017-02-02T00:38:33.591Z,925.46
2017-02-02T00:38:48.243Z,925.49
2017-02-02T00:39:02.790Z,925.44
2017-02-02T00:39:17.431Z,925.47
2017-02-02T00:39:32.124Z,925.47
2017-02-02T00:39:46.719Z,925.47
2017-02-02T00:40:01.298Z,925.51
2017-02-02T00:40:15.916Z,925.5
2017-02-02T00:40:30.499Z,925.51
2017-02-02T00:40:45.082Z,925.47
2017-02-02T00:40:59.717Z,925.46
2017-02-02T00:41:14.340Z,925.47
2017-02-02T00:41:28.967Z,925.49
2017-02-02T00:41:43.588Z,925.49
2017-02-02T00:41:58.275Z,925.52
2017-02-02T00:42:12.894Z,925.5
2017-02-02T00:42:27.436Z,925.52
2017-02-02T00:42:41.989Z,925.54
2017-02-02T00:42:56.567Z,925.54
2017-02-02T00:43:11.190Z,925.49
2017-02-02T00:43:25.759Z,925.51
2017-02-02T00:43:40.327Z,925.52
2017-02-02T00:43:54.939Z,925.52
2017-02-02T00:44:09.469Z,925.49
2017-02-02T00:44:23.992Z,925.52
2017-02-02T00:44:38.590Z,925.52
2017-02-02T00:44:53.197Z,925.51
2017-02-02T00:45:07.805Z,925.56
2017-02-02T00:45:22.415Z,925.53
2017-02-02T00:45:37.051Z,925.52
2017-02-02T00:45:51.678Z,925.56
2017-02-02T00:46:06.326Z,925.53
2017-02-02T00:46:20.884Z,925.55
2017-02-02T00:46:35.436Z,925.56
2017-02-02T00:46:49.982Z,925.57
2017-02-02T00:47:04.516Z,925.59
2017-02-02T00:47:19.050Z,925.57
2017-02-02T00:47:33.566Z,925.55
2017-02-02T00:47:48.129Z,925.58
2017-02-02T00:48:02.706Z,925.56
2017-02-02T00:48:17.325Z,925.56
2017-02-02T00:48:31.956Z,925.55
2017-02-02T00:48:46.749Z,925.58
2017-02-02T00:49:01.613Z,925.61
2017-02-02T00:49:16.217Z,925.58
2017-02-02T00:49:30.838Z,925.6
2017-02-02T00:49:45.415Z,925.56
2017-02-02T00:50:00.050Z,925.59
2017-02-02T00:50:14.568Z,925.59
2017-02-02T00:50:29.134Z,925.58
2017-02-02T00:50:44.023Z,925.57
2017-02-02T00:50:58.632Z,925.56
2017-02-02T00:51:13.247Z,925.59
2017-02-02T00:51:27.892Z,925.61
2017-02-02T00:51:42.466Z,925.62
2017-02-02T00:51:57.048Z,925.64
2017-02-02T00:52:11.536Z,925.62
2017-02-02T00:52:26.162Z,925.64
2017-02-02T00:52:40.671Z,925.61
2017-02-02T00:52:55.283Z,925.61
2017-02-02T00:53:09.886Z,925.65
2017-02-02T00:53:24.430Z,925.63
2017-02-02T00:53:39.182Z,925.62
2017-02-02T00:53:54.000Z,925.66
2017-02-02T00:54:08.522Z,925.65
2017-02-02T00:54:23.100Z,925.66
2017-02-02T00:54:37.693Z,925.64
2017-02-02T00:54:52.321Z,925.64
2017-02-02T00:55:07.013Z,925.62
2017-02-02T00:55:21.610Z,925.64
2017-02-02T00:55:36.160Z,925.64
2017-02-02T00:55:50.744Z,925.65
2017-02-02T00:56:05.322Z,925.61
2017-02-02T00:56:19.918Z,925.64
2017-02-02T00:56:34.594Z,925.64
2017-02-02T00:56:49.181Z,925.63
2017-02-02T00:57:03.885Z,925.64
2017-02-02T00:57:18.503Z,925.61
2017-02-02T00:57:33.079Z,925.64
2017-02-02T00:57:47.638Z,925.65
2017-02-02T00:58:02.219Z,925.68
2017-02-02T00:58:16.858Z,925.66
2017-02-02T00:58:31.456Z,925.63
2017-02-02T00:58:46.046Z,925.68
2017-02-02T00:59:00.632Z,925.64
2017-02-02T00:59:15.276Z,925.69
2017-02-02T00:59:29.901Z,925.67
2017-02-02T00:59:44.533Z,925.7
2017-02-02T00:59:59.151Z,925.7
2017-02-02T01:00:13.765Z,925.7
2017-02-02T01:00:28.304Z,925.71
2017-02-02T01:00:42.865Z,925.77
2017-02-02T01:00:57.433Z,925.73
2017-02-02T01:01:12.070Z,925.73
2017-02-02T01:01:26.676Z,925.73
2017-02-02T01:01:41.200Z,925.73
2017-02-02T01:01:55.747Z,925.75
2017-02-02T01:02:10.209Z,925.76
2017-02-02T01:02:24.774Z,925.75
2017-02-02T01:02:39.366Z,925.74
2017-02-02T01:02:53.932Z,925.76
2017-02-02T01:03:08.499Z,925.82
2017-02-02T01:03:23.082Z,925.79
2017-02-02T01:03:37.696Z,925.79
2017-02-02T01:03:52.354Z,925.78
2017-02-02T01:04:06.991Z,925.81
2017-02-02T01:04:21.647Z,925.76
2017-02-02T01:04:36.209Z,925.83
2017-02-02T01:04:50.873Z,925.8
2017-02-02T01:05:05.540Z,925.81
2017-02-02T01:05:20.295Z,925.85
2017-02-02T01:05:34.872Z,925.8
2017-02-02T01:05:49.707Z,925.83
2017-02-02T01:06:04.377Z,925.86
2017-02-02T01:06:18.896Z,925.87
2017-02-02T01:06:33.439Z,925.87
2017-02-02T01:06:48.062Z,925.85
2017-02-02T01:07:02.642Z,925.84
2017-02-02T01:07:17.237Z,925.87
2017-02-02T01:07:31.838Z,925.89
2017-02-02T01:07:46.463Z,925.89
2017-02-02T01:08:01.062Z,925.85
2017-02-02T01:08:15.653Z,925.87
2017-02-02T01:08:30.203Z,925.87
2017-02-02T01:08:44.807Z,925.86
2017-02-02T01:08:59.430Z,925.86
2017-02-02T01:09:14.073Z,925.86
2017-02-02T01:09:28.746Z,925.86
2017-02-02T01:09:43.604Z,925.87
2017-02-02T01:09:58.170Z,925.85
2017-02-02T01:10:12.825Z,925.85
2017-02-02T01:10:27.385Z,925.86
2017-02-02T01:10:41.927Z,925.82
2017-02-02T01:10:56.518Z,925.79
2017-02-02T01:11:11.366Z,925.81
2017-02-02T01:11:25.889Z,925.81
2017-02-02T01:11:40.515Z,925.8
2017-02-02T01:11:55.095Z,925.79
2017-02-02T01:12:09.736Z,925.76
2017-02-02T01:12:24.350Z,925.78
2017-02-02T01:12:39.214Z,925.8
2017-02-02T01:12:53.850Z,925.75
2017-02-02T01:13:15.090Z,925.78
2017-02-02T01:13:29.854Z,925.79
2017-02-02T01:13:45.006Z,925.72
2017-02-02T01:13:59.612Z,925.76
2017-02-02T01:14:45.650Z,925.75
2017-02-02T01:15:24.340Z,925.74
2017-02-02T01:15:38.976Z,925.77
2017-02-02T01:17:29.928Z,925.82
2017-02-02T01:18:15.441Z,925.82
2017-02-02T01:18:56.267Z,925.83
2017-02-02T01:20:13.126Z,925.9
2017-02-02T01:20:58.602Z,925.86
2017-02-02T01:21:13.433Z,925.86
2017-02-02T01:22:13.896Z,925.86
2017-02-02T01:22:28.734Z,925.88
2017-02-02T01:22:43.320Z,925.85
2017-02-02T01:22:57.895Z,925.87
2017-02-02T01:23:13.132Z,925.85
2017-02-02T01:23:27.796Z,925.87
2017-02-02T01:23:44.516Z,925.87
2017-02-02T01:24:07.758Z,925.85
2017-02-02T01:24:33.034Z,925.84
2017-02-02T01:24:48.463Z,925.86
2017-02-02T01:25:37.125Z,925.81
2017-02-02T01:26:48.409Z,925.8
2017-02-02T01:27:25.829Z,925.8
2017-02-02T01:27:40.703Z,925.8
2017-02-02T01:27:57.197Z,925.83
2017-02-02T01:28:13.711Z,925.81
2017-02-02T01:28:36.611Z,925.8
2017-02-02T01:28:52.525Z,925.77
2017-02-02T01:29:09.805Z,925.82
2017-02-02T01:29:24.380Z,925.76
2017-02-02T01:29:39.140Z,925.8
2017-02-02T01:29:53.977Z,925.78
2017-02-02T01:30:09.083Z,925.8
2017-02-02T01:30:51.899Z,925.8
2017-02-02T01:31:07.790Z,925.79
2017-02-02T01:31:22.578Z,925.79
2017-02-02T01:31:37.445Z,925.79
2017-02-02T01:31:52.005Z,925.78
2017-02-02T01:32:07.813Z,925.78
2017-02-02T01:33:07.890Z,925.74
2017-02-02T01:33:28.326Z,925.76
2017-02-02T01:33:43.093Z,925.75
2017-02-02T01:33:57.670Z,925.74
2017-02-02T01:34:14.863Z,925.72
2017-02-02T01:35:06.064Z,925.73
2017-02-02T01:35:21.405Z,925.74
2017-02-02T01:35:38.279Z,925.75
2017-02-02T01:35:52.873Z,925.74
2017-02-02T01:36:13.695Z,925.72
2017-02-02T01:36:28.290Z,925.74
2017-02-02T01:36:42.827Z,925.75
2017-02-02T01:38:05.802Z,925.73
2017-02-02T01:39:00.868Z,925.71
2017-02-02T01:39:21.612Z,925.74
2017-02-02T01:39:36.494Z,925.73
2017-02-02T01:40:04.629Z,925.71
2017-02-02T01:40:19.218Z,925.7
2017-02-02T01:40:33.905Z,925.7
2017-02-02T01:41:41.026Z,925.67
2017-02-02T01:41:55.653Z,925.69
2017-02-02T01:42:10.273Z,925.71
2017-02-02T01:42:24.890Z,925.69
2017-02-02T01:42:39.476Z,925.7
2017-02-02T01:42:54.151Z,925.71
2017-02-02T01:43:15.164Z,925.73
2017-02-02T01:43:32.212Z,925.73
2017-02-02T01:43:47.278Z,925.7
2017-02-02T01:44:01.879Z,925.69
2017-02-02T01:44:17.195Z,925.7
2017-02-02T01:44:31.794Z,925.72
2017-02-02T01:44:46.999Z,925.69
2017-02-02T01:45:01.556Z,925.67
2017-02-02T01:45:16.197Z,925.68
2017-02-02T01:45:30.737Z,925.71
2017-02-02T01:45:45.295Z,925.7
2017-02-02T01:45:59.873Z,925.67
2017-02-02T01:46:14.385Z,925.65
2017-02-02T01:46:28.972Z,925.69
2017-02-02T01:46:43.681Z,925.66
2017-02-02T01:46:58.962Z,925.67
2017-02-02T01:47:13.555Z,925.67
2017-02-02T01:47:28.207Z,925.7
2017-02-02T01:47:42.974Z,925.68
2017-02-02T01:47:57.534Z,925.71
2017-02-02T01:48:12.159Z,925.7
2017-02-02T01:48:26.720Z,925.68
2017-02-02T01:48:41.314Z,925.68
2017-02-02T01:48:55.895Z,925.7
2017-02-02T01:49:10.420Z,925.68
2017-02-02T01:49:25.015Z,925.67
2017-02-02T01:49:51.621Z,925.65
2017-02-02T01:50:06.207Z,925.69
2017-02-02T01:51:23.050Z,925.68
2017-02-02T01:51:37.668Z,925.69
2017-02-02T01:52:54.995Z,925.67
2017-02-02T01:53:50.937Z,925.65
2017-02-02T01:54:12.102Z,925.62
2017-02-02T01:55:16.746Z,925.59
2017-02-02T01:56:39.732Z,925.6
2017-02-02T01:56:54.384Z,925.58
2017-02-02T01:57:09.036Z,925.56
2017-02-02T01:57:23.643Z,925.57
2017-02-02T01:57:38.345Z,925.59
2017-02-02T01:57:52.928Z,925.6
2017-02-02T01:58:07.551Z,925.62
2017-02-02T01:58:22.148Z,925.61
2017-02-02T01:58:36.677Z,925.61
2017-02-02T01:58:51.280Z,925.61
2017-02-02T01:59:05.877Z,925.64
2017-02-02T01:59:20.777Z,925.62
2017-02-02T01:59:35.390Z,925.59
2017-02-02T01:59:50.100Z,925.63
2017-02-02T02:00:04.710Z,925.62
2017-02-02T02:00:19.337Z,925.58
2017-02-02T02:00:34.253Z,925.61
2017-02-02T02:00:48.821Z,925.65
2017-02-02T02:01:03.343Z,925.65
2017-02-02T02:01:17.938Z,925.63
2017-02-02T02:01:32.526Z,925.63
2017-02-02T02:01:47.141Z,925.67
2017-02-02T02:02:01.750Z,925.65
2017-02-02T02:02:16.354Z,925.64
2017-02-02T02:02:30.882Z,925.67
2017-02-02T02:02:45.505Z,925.65
2017-02-02T02:03:00.160Z,925.65
2017-02-02T02:03:14.702Z,925.67
2017-02-02T02:03:29.336Z,925.63
2017-02-02T02:03:43.991Z,925.66
2017-02-02T02:03:58.553Z,925.65
2017-02-02T02:04:13.108Z,925.7
2017-02-02T02:04:27.660Z,925.7
2017-02-02T02:04:42.259Z,925.68
2017-02-02T02:04:56.828Z,925.67
2017-02-02T02:05:11.433Z,925.68
2017-02-02T02:05:26.027Z,925.7
2017-02-02T02:05:40.582Z,925.71
2017-02-02T02:05:55.136Z,925.7
2017-02-02T02:06:09.712Z,925.68
2017-02-02T02:06:24.426Z,925.69
2017-02-02T02:06:39.483Z,925.71
2017-02-02T02:06:54.165Z,925.67
2017-02-02T02:07:08.767Z,925.69
2017-02-02T02:07:23.334Z,925.7
2017-02-02T02:07:38.176Z,925.66
2017-02-02T02:07:53.964Z,925.69
2017-02-02T02:08:54.057Z,925.7
2017-02-02T02:09:39.566Z,925.7
2017-02-02T02:09:54.131Z,925.67
2017-02-02T02:10:08.717Z,925.69
2017-02-02T02:10:54.220Z,925.72
2017-02-02T02:11:08.800Z,925.69
2017-02-02T02:11:23.356Z,925.74
2017-02-02T02:11:37.943Z,925.73
2017-02-02T02:11:52.481Z,925.69
2017-02-02T02:12:07.067Z,925.74
2017-02-02T02:12:52.502Z,925.72
2017-02-02T02:13:07.120Z,925.72
2017-02-02T02:13:21.882Z,925.72
2017-02-02T02:13:36.459Z,925.71
2017-02-02T02:13:51.031Z,925.7
2017-02-02T02:15:07.442Z,925.71
2017-02-02T02:15:52.897Z,925.72
2017-02-02T02:16:38.365Z,925.71
2017-02-02T02:16:52.974Z,925.75
2017-02-02T02:17:07.550Z,925.74
2017-02-02T02:17:22.132Z,925.76
2017-02-02T02:17:36.667Z,925.74
2017-02-02T02:17:51.297Z,925.75
2017-02-02T02:18:05.903Z,925.72
2017-02-02T02:18:51.393Z,925.73
2017-02-02T02:19:05.940Z,925.73
2017-02-02T02:19:20.501Z,925.74
2017-02-02T02:19:35.082Z,925.73
2017-02-02T02:19:49.641Z,925.75
2017-02-02T02:20:04.221Z,925.69
2017-02-02T02:20:18.856Z,925.77
2017-02-02T02:20:33.366Z,925.73
2017-02-02T02:20:47.910Z,925.72
2017-02-02T02:21:02.531Z,925.71
2017-02-02T02:21:17.140Z,925.71
2017-02-02T02:22:17.195Z,925.7
2017-02-02T02:22:31.972Z,925.69
2017-02-02T02:22:46.556Z,925.69
2017-02-02T02:23:01.392Z,925.66
2017-02-02T02:23:46.868Z,925.65
2017-02-02T02:24:01.414Z,925.62
2017-02-02T02:24:46.828Z,925.64
2017-02-02T02:25:01.400Z,925.64
2017-02-02T02:25:16.014Z,925.67
2017-02-02T02:25:30.634Z,925.62
2017-02-02T02:25:45.216Z,925.6
2017-02-02T02:25:59.801Z,925.6
2017-02-02T02:26:14.398Z,925.64
2017-02-02T02:26:28.905Z,925.66
2017-02-02T02:27:14.398Z,925.63
2017-02-02T02:27:29.026Z,925.63
2017-02-02T02:27:43.610Z,925.63
2017-02-02T02:27:58.166Z,925.63
2017-02-02T02:28:12.708Z,925.6
2017-02-02T02:28:27.255Z,925.65
2017-02-02T02:28:41.813Z,925.65
2017-02-02T02:28:56.394Z,925.63
2017-02-02T02:29:10.991Z,925.63
2017-02-02T02:29:25.638Z,925.63
2017-02-02T02:29:40.263Z,925.6
2017-02-02T02:29:54.878Z,925.59
2017-02-02T02:30:40.390Z,925.58
2017-02-02T02:30:54.982Z,925.56
2017-02-02T02:31:09.509Z,925.56
2017-02-02T02:31:24.277Z,925.55
2017-02-02T02:31:38.884Z,925.54
2017-02-02T02:33:09.834Z,925.5
2017-02-02T02:33:24.431Z,925.48
2017-02-02T02:34:09.878Z,925.49
2017-02-02T02:34:24.447Z,925.49
2017-02-02T02:34:38.960Z,925.46
2017-02-02T02:34:53.479Z,925.45
2017-02-02T02:35:38.948Z,925.43
2017-02-02T02:35:53.564Z,925.45
2017-02-02T02:36:53.568Z,925.41
2017-02-02T02:37:08.122Z,925.39
2017-02-02T02:37:22.734Z,925.41
2017-02-02T02:37:37.316Z,925.38
2017-02-02T02:37:51.861Z,925.38
2017-02-02T02:38:06.671Z,925.37
2017-02-02T02:38:21.266Z,925.37
2017-02-02T02:38:35.883Z,925.37
2017-02-02T02:39:21.369Z,925.36
2017-02-02T02:40:06.867Z,925.37
2017-02-02T02:40:21.386Z,925.34
2017-02-02T02:40:35.985Z,925.34
2017-02-02T02:40:50.565Z,925.33
2017-02-02T02:41:36.069Z,925.33
2017-02-02T02:42:21.561Z,925.32
2017-02-02T02:43:07.099Z,925.33
2017-02-02T02:43:21.657Z,925.31
2017-02-02T02:44:07.201Z,925.31
2017-02-02T02:44:21.787Z,925.31
2017-02-02T02:44:36.367Z,925.33
2017-02-02T02:45:47.730Z,925.33
2017-02-02T02:46:02.531Z,925.3
2017-02-02T02:46:17.133Z,925.3
2017-02-02T02:46:31.668Z,925.34
2017-02-02T02:46:46.248Z,925.31
2017-02-02T02:47:31.718Z,925.28
2017-02-02T02:47:46.254Z,925.31
2017-02-02T02:48:00.741Z,925.28
2017-02-02T02:48:15.289Z,925.33
2017-02-02T02:48:29.880Z,925.28
2017-02-02T02:48:44.429Z,925.32
2017-02-02T02:49:18.155Z,925.28
2017-02-02T02:50:03.858Z,925.27
2017-02-02T02:50:49.298Z,925.28
2017-02-02T02:51:03.902Z,925.26
2017-02-02T02:51:18.457Z,925.3
2017-02-02T02:51:33.045Z,925.23
2017-02-02T02:51:47.625Z,925.26
2017-02-02T02:52:02.229Z,925.25
2017-02-02T02:53:33.387Z,925.23
2017-02-02T02:53:48.013Z,925.21
2017-02-02T02:54:02.653Z,925.25
2017-02-02T02:54:48.160Z,925.22
2017-02-02T02:55:33.668Z,925.22
2017-02-02T02:55:48.165Z,925.22
2017-02-02T02:56:02.735Z,925.23
2017-02-02T02:56:17.718Z,925.24
2017-02-02T02:56:32.339Z,925.23
2017-02-02T02:56:46.910Z,925.2
2017-02-02T02:57:01.494Z,925.24
2017-02-02T02:58:17.889Z,925.28
2017-02-02T02:58:32.695Z,925.25
2017-02-02T02:58:47.299Z,925.28
2017-02-02T02:59:01.932Z,925.28
2017-02-02T02:59:47.394Z,925.28
2017-02-02T03:00:01.975Z,925.3
2017-02-02T03:00:16.590Z,925.31
2017-02-02T03:01:12.613Z,925.3
2017-02-02T03:01:27.157Z,925.33
2017-02-02T03:02:12.644Z,925.37
2017-02-02T03:02:27.458Z,925.34
2017-02-02T03:03:44.065Z,925.36
2017-02-02T03:04:29.530Z,925.31
2017-02-02T03:04:44.091Z,925.34
2017-02-02T03:05:29.577Z,925.33
2017-02-02T03:05:44.195Z,925.31
2017-02-02T03:05:59.299Z,925.32
2017-02-02T03:06:13.891Z,925.31
2017-02-02T03:07:44.818Z,925.27
2017-02-02T03:07:59.435Z,925.27
2017-02-02T03:08:13.985Z,925.28
2017-02-02T03:09:01.306Z,925.26
2017-02-02T03:09:15.817Z,925.24
2017-02-02T03:09:30.386Z,925.27
2017-02-02T03:09:45.166Z,925.24
2017-02-02T03:09:59.722Z,925.27
2017-02-02T03:10:14.286Z,925.24
2017-02-02T03:10:28.945Z,925.26
2017-02-02T03:10:43.563Z,925.22
2017-02-02T03:11:39.799Z,925.22
2017-02-02T03:11:54.307Z,925.18
2017-02-02T03:12:08.817Z,925.23
2017-02-02T03:12:23.422Z,925.2
2017-02-02T03:13:34.801Z,925.21
2017-02-02T03:13:49.413Z,925.22
2017-02-02T03:14:34.882Z,925.2
2017-02-02T03:14:50.081Z,925.18
2017-02-02T03:15:04.621Z,925.2
2017-02-02T03:15:19.179Z,925.19
2017-02-02T03:15:33.798Z,925.23
2017-02-02T03:15:48.341Z,925.22
2017-02-02T03:16:02.925Z,925.22
2017-02-02T03:16:17.470Z,925.25
2017-02-02T03:17:02.932Z,925.21
2017-02-02T03:17:17.467Z,925.23
2017-02-02T03:17:31.993Z,925.18
2017-02-02T03:17:46.473Z,925.2
2017-02-02T03:18:01.256Z,925.19
2017-02-02T03:18:15.837Z,925.21
2017-02-02T03:18:30.411Z,925.19
2017-02-02T03:18:45.137Z,925.2
2017-02-02T03:18:59.697Z,925.14
2017-02-02T03:19:14.234Z,925.17
2017-02-02T03:19:28.835Z,925.13
2017-02-02T03:19:43.394Z,925.15
2017-02-02T03:19:57.893Z,925.16
2017-02-02T03:20:12.422Z,925.15
2017-02-02T03:20:27.005Z,925.17
2017-02-02T03:20:41.521Z,925.14
2017-02-02T03:20:56.068Z,925.15
2017-02-02T03:21:10.677Z,925.2
2017-02-02T03:21:25.198Z,925.2
2017-02-02T03:21:39.774Z,925.15
2017-02-02T03:21:54.352Z,925.18
2017-02-02T03:22:08.871Z,925.16
2017-02-02T03:22:23.422Z,925.13
2017-02-02T03:22:37.991Z,925.14
2017-02-02T03:22:52.561Z,925.16
2017-02-02T03:23:07.152Z,925.18
2017-02-02T03:23:21.709Z,925.17
2017-02-02T03:23:36.318Z,925.16
2017-02-02T03:23:50.896Z,925.16
2017-02-02T03:24:05.449Z,925.17
2017-02-02T03:24:20.007Z,925.17
2017-02-02T03:24:34.813Z,925.14
2017-02-02T03:24:49.389Z,925.14
2017-02-02T03:25:03.953Z,925.16
2017-02-02T03:25:18.560Z,925.13
2017-02-02T03:25:33.146Z,925.14
2017-02-02T03:25:47.712Z,925.15
2017-02-02T03:26:02.280Z,925.11
2017-02-02T03:26:16.857Z,925.09
2017-02-02T03:26:31.359Z,925.12
2017-02-02T03:26:45.900Z,925.12
2017-02-02T03:27:00.469Z,925.12
2017-02-02T03:27:15.025Z,925.12
2017-02-02T03:27:29.873Z,925.11
2017-02-02T03:27:44.469Z,925.15
2017-02-02T03:27:59.056Z,925.14
2017-02-02T03:28:13.614Z,925.09
2017-02-02T03:28:28.148Z,925.1
2017-02-02T03:28:42.712Z,925.07
2017-02-02T03:28:57.289Z,925.08
2017-02-02T03:29:11.854Z,925.09
2017-02-02T03:29:26.376Z,925.04
2017-02-02T03:29:40.889Z,925.11
2017-02-02T03:29:55.436Z,925.09
2017-02-02T03:30:09.994Z,925.04
2017-02-02T03:30:24.511Z,925.05
2017-02-02T03:30:39.045Z,925.05
2017-02-02T03:30:53.620Z,925.03
2017-02-02T03:31:08.205Z,925.05
2017-02-02T03:31:22.796Z,925
2017-02-02T03:31:37.402Z,925.03
2017-02-02T03:31:51.942Z,925.01
2017-02-02T03:32:06.492Z,925.02
2017-02-02T03:32:21.114Z,925.03
2017-02-02T03:32:35.656Z,925
2017-02-02T03:32:50.208Z,925.02
2017-02-02T03:33:04.716Z,924.99
2017-02-02T03:33:19.254Z,924.98
2017-02-02T03:33:33.857Z,924.99
2017-02-02T03:33:48.382Z,924.97
2017-02-02T03:34:02.928Z,924.99
2017-02-02T03:34:17.491Z,924.98
2017-02-02T03:34:32.062Z,924.96
2017-02-02T03:34:46.622Z,924.92
2017-02-02T03:35:01.195Z,924.93
2017-02-02T03:35:15.763Z,924.94
2017-02-02T03:35:30.288Z,924.92
2017-02-02T03:35:44.835Z,924.97
2017-02-02T03:35:59.410Z,924.97
2017-02-02T03:36:13.966Z,924.95
2017-02-02T03:36:28.522Z,924.96
2017-02-02T03:36:43.142Z,924.94
2017-02-02T03:36:57.681Z,924.95
2017-02-02T03:37:12.286Z,924.91
2017-02-02T03:37:26.850Z,924.93
2017-02-02T03:37:41.449Z,924.93
2017-02-02T03:37:55.953Z,924.89
2017-02-02T03:38:10.493Z,924.9
2017-02-02T03:38:25.026Z,924.87
2017-02-02T03:38:39.645Z,924.87
2017-02-02T03:38:54.145Z,924.88
2017-02-02T03:39:08.621Z,924.88
2017-02-02T03:39:23.193Z,924.87
2017-02-02T03:39:37.763Z,924.9
2017-02-02T03:39:52.564Z,924.88
2017-02-02T03:40:07.139Z,924.89
2017-02-02T03:40:21.690Z,924.92
2017-02-02T03:40:36.344Z,924.85
2017-02-02T03:40:50.922Z,924.87
2017-02-02T03:41:05.476Z,924.88
2017-02-02T03:41:20.022Z,924.88
2017-02-02T03:41:34.573Z,924.87
2017-02-02T03:41:49.129Z,924.87
2017-02-02T03:42:03.731Z,924.87
2017-02-02T03:42:18.343Z,924.87
2017-02-02T03:42:32.945Z,924.9
2017-02-02T03:42:47.449Z,924.89
2017-02-02T03:43:01.963Z,924.9
2017-02-02T03:43:16.548Z,924.9
2017-02-02T03:43:31.211Z,924.89
2017-02-02T03:43:45.796Z,924.9
2017-02-02T03:44:00.361Z,924.89
2017-02-02T03:44:14.936Z,924.88
2017-02-02T03:44:29.515Z,924.92
2017-02-02T03:44:44.126Z,924.88
2017-02-02T03:44:58.741Z,924.9
2017-02-02T03:45:13.285Z,924.9
2017-02-02T03:45:27.889Z,924.9
2017-02-02T03:45:42.518Z,924.9
2017-02-02T03:45:57.068Z,924.87
2017-02-02T03:46:11.636Z,924.89
2017-02-02T03:46:26.187Z,924.88
2017-02-02T03:46:40.757Z,924.89
2017-02-02T03:46:55.335Z,924.92
2017-02-02T03:47:09.942Z,924.92
2017-02-02T03:47:24.519Z,924.92
2017-02-02T03:47:39.072Z,924.89
2017-02-02T03:47:53.610Z,924.9
2017-02-02T03:48:08.199Z,924.92
2017-02-02T03:48:22.752Z,924.92
2017-02-02T03:48:37.325Z,924.88
2017-02-02T03:48:51.868Z,924.89
2017-02-02T03:49:06.486Z,924.9
2017-02-02T03:49:21.052Z,924.91
2017-02-02T03:49:35.652Z,924.89
2017-02-02T03:49:50.224Z,924.87
2017-02-02T03:50:04.759Z,924.88